sensor_id;sensor_type;location;lat;lon;timestamp;P1;durP1;ratioP1;P2;durP2;ratioP2
3979;SDS011;2004;52.452;13.120;2023-05-14T00:03:22;16.67;;;11.57;;
3979;SDS011;2004;52.452;13.120;2023-05-14T00:11:13;16.83;;;10.73;;
3979;SDS011;2004;52.452;13.120;2023-05-14T00:19:03;12.57;;;9.73;;
3979;SDS011;2004;52.452;13.120;2023-05-14T00:26:54;14.80;;;9.30;;
3979;SDS011;2004;52.452;13.120;2023-05-14T00:34:45;18.83;;;8.13;;
3979;SDS011;2004;52.452;13.120;2023-05-14T00:42:36;11.63;;;9.50;;
3979;SDS011;2004;52.452;13.120;2023-05-14T00:50:28;9.83;;;7.80;;
3979;SDS011;2004;52.452;13.120;2023-05-14T00:58:19;10.93;;;8.50;;
3979;SDS011;2004;52.452;13.120;2023-05-14T01:14:44;12.77;;;8.00;;
3979;SDS011;2004;52.452;13.120;2023-05-14T01:22:54;14.90;;;9.17;;
3979;SDS011;2004;52.452;13.120;2023-05-14T01:30:48;11.80;;;8.10;;
3979;SDS011;2004;52.452;13.120;2023-05-14T01:38:46;10.87;;;8.50;;
3979;SDS011;2004;52.452;13.120;2023-05-14T01:46:40;10.97;;;8.00;;
3979;SDS011;2004;52.452;13.120;2023-05-14T01:54:31;11.10;;;8.50;;
3979;SDS011;2004;52.452;13.120;2023-05-14T02:02:22;10.93;;;9.07;;
3979;SDS011;2004;52.452;13.120;2023-05-14T02:10:14;13.47;;;8.97;;
3979;SDS011;2004;52.452;13.120;2023-05-14T02:18:04;15.20;;;9.23;;
3979;SDS011;2004;52.452;13.120;2023-05-14T02:25:55;9.87;;;8.73;;
3979;SDS011;2004;52.452;13.120;2023-05-14T02:33:45;12.70;;;9.73;;
3979;SDS011;2004;52.452;13.120;2023-05-14T02:41:36;12.93;;;9.50;;
3979;SDS011;2004;52.452;13.120;2023-05-14T02:49:27;11.00;;;8.90;;
3979;SDS011;2004;52.452;13.120;2023-05-14T02:57:17;11.60;;;9.60;;
3979;SDS011;2004;52.452;13.120;2023-05-14T03:05:08;23.43;;;10.00;;
3979;SDS011;2004;52.452;13.120;2023-05-14T03:12:58;12.80;;;9.83;;
3979;SDS011;2004;52.452;13.120;2023-05-14T03:20:49;12.43;;;10.10;;
3979;SDS011;2004;52.452;13.120;2023-05-14T03:28:39;16.80;;;10.80;;
3979;SDS011;2004;52.452;13.120;2023-05-14T03:36:30;19.40;;;10.87;;
3979;SDS011;2004;52.452;13.120;2023-05-14T03:44:21;11.10;;;9.87;;
3979;SDS011;2004;52.452;13.120;2023-05-14T03:52:12;15.07;;;9.93;;
3979;SDS011;2004;52.452;13.120;2023-05-14T04:00:03;18.90;;;11.30;;
3979;SDS011;2004;52.452;13.120;2023-05-14T04:07:54;14.13;;;10.50;;
3979;SDS011;2004;52.452;13.120;2023-05-14T04:15:47;16.70;;;9.60;;
3979;SDS011;2004;52.452;13.120;2023-05-14T04:23:37;11.57;;;9.83;;
3979;SDS011;2004;52.452;13.120;2023-05-14T04:31:28;12.43;;;9.67;;
3979;SDS011;2004;52.452;13.120;2023-05-14T04:39:19;12.97;;;9.80;;
3979;SDS011;2004;52.452;13.120;2023-05-14T04:47:09;10.30;;;8.17;;
3979;SDS011;2004;52.452;13.120;2023-05-14T04:55:00;15.20;;;9.13;;
3979;SDS011;2004;52.452;13.120;2023-05-14T05:02:50;10.90;;;8.73;;
3979;SDS011;2004;52.452;13.120;2023-05-14T05:10:41;13.90;;;7.30;;
3979;SDS011;2004;52.452;13.120;2023-05-14T05:18:31;10.93;;;7.17;;
3979;SDS011;2004;52.452;13.120;2023-05-14T05:26:23;8.27;;;5.93;;
3979;SDS011;2004;52.452;13.120;2023-05-14T05:34:15;13.97;;;6.03;;
3979;SDS011;2004;52.452;13.120;2023-05-14T05:42:06;15.77;;;6.20;;
3979;SDS011;2004;52.452;13.120;2023-05-14T05:49:57;11.20;;;5.70;;
3979;SDS011;2004;52.452;13.120;2023-05-14T05:57:47;9.43;;;6.10;;
3979;SDS011;2004;52.452;13.120;2023-05-14T06:05:38;7.07;;;4.70;;
3979;SDS011;2004;52.452;13.120;2023-05-14T06:13:30;9.67;;;5.57;;
3979;SDS011;2004;52.452;13.120;2023-05-14T06:21:20;8.20;;;5.23;;
3979;SDS011;2004;52.452;13.120;2023-05-14T06:29:11;6.63;;;5.03;;
3979;SDS011;2004;52.452;13.120;2023-05-14T06:37:01;8.70;;;5.77;;
3979;SDS011;2004;52.452;13.120;2023-05-14T06:44:56;7.03;;;4.70;;
3979;SDS011;2004;52.452;13.120;2023-05-14T06:52:47;6.70;;;4.47;;
3979;SDS011;2004;52.452;13.120;2023-05-14T07:00:38;6.20;;;5.20;;
3979;SDS011;2004;52.452;13.120;2023-05-14T07:08:29;10.03;;;4.87;;
3979;SDS011;2004;52.452;13.120;2023-05-14T07:16:19;6.07;;;4.30;;
3979;SDS011;2004;52.452;13.120;2023-05-14T07:24:10;8.93;;;4.30;;
3979;SDS011;2004;52.452;13.120;2023-05-14T07:32:00;6.67;;;4.20;;
3979;SDS011;2004;52.452;13.120;2023-05-14T07:39:52;6.67;;;3.93;;
3979;SDS011;2004;52.452;13.120;2023-05-14T07:47:43;13.83;;;4.57;;
3979;SDS011;2004;52.452;13.120;2023-05-14T07:55:33;7.00;;;4.47;;
3979;SDS011;2004;52.452;13.120;2023-05-14T08:03:24;3.60;;;3.37;;
3979;SDS011;2004;52.452;13.120;2023-05-14T08:11:15;6.77;;;4.13;;
3979;SDS011;2004;52.452;13.120;2023-05-14T08:19:06;8.23;;;4.03;;
3979;SDS011;2004;52.452;13.120;2023-05-14T08:26:56;4.93;;;3.40;;
3979;SDS011;2004;52.452;13.120;2023-05-14T08:34:47;6.60;;;3.27;;
3979;SDS011;2004;52.452;13.120;2023-05-14T08:42:37;3.67;;;3.00;;
3979;SDS011;2004;52.452;13.120;2023-05-14T08:50:33;3.80;;;3.23;;
3979;SDS011;2004;52.452;13.120;2023-05-14T08:58:25;9.20;;;3.67;;
3979;SDS011;2004;52.452;13.120;2023-05-14T09:06:17;4.50;;;3.57;;
3979;SDS011;2004;52.452;13.120;2023-05-14T09:14:09;8.60;;;3.33;;
3979;SDS011;2004;52.452;13.120;2023-05-14T09:21:59;8.60;;;3.73;;
3979;SDS011;2004;52.452;13.120;2023-05-14T09:29:50;10.73;;;3.53;;
3979;SDS011;2004;52.452;13.120;2023-05-14T09:37:41;4.30;;;3.90;;
3979;SDS011;2004;52.452;13.120;2023-05-14T09:45:35;8.07;;;3.60;;
3979;SDS011;2004;52.452;13.120;2023-05-14T09:53:26;11.40;;;3.50;;
3979;SDS011;2004;52.452;13.120;2023-05-14T10:01:18;3.50;;;3.20;;
3979;SDS011;2004;52.452;13.120;2023-05-14T10:09:11;5.90;;;3.23;;
3979;SDS011;2004;52.452;13.120;2023-05-14T10:17:02;3.40;;;3.10;;
3979;SDS011;2004;52.452;13.120;2023-05-14T10:24:55;27.43;;;17.53;;
3979;SDS011;2004;52.452;13.120;2023-05-14T10:32:46;22.60;;;16.23;;
3979;SDS011;2004;52.452;13.120;2023-05-14T10:40:36;6.50;;;3.87;;
3979;SDS011;2004;52.452;13.120;2023-05-14T10:48:28;5.27;;;3.47;;
3979;SDS011;2004;52.452;13.120;2023-05-14T10:56:18;8.53;;;3.83;;
3979;SDS011;2004;52.452;13.120;2023-05-14T11:04:09;11.90;;;3.80;;
3979;SDS011;2004;52.452;13.120;2023-05-14T11:12:07;9.50;;;4.97;;
3979;SDS011;2004;52.452;13.120;2023-05-14T11:27:29;6.83;;;4.60;;
3979;SDS011;2004;52.452;13.120;2023-05-14T11:35:20;6.37;;;3.80;;
3979;SDS011;2004;52.452;13.120;2023-05-14T11:43:11;3.10;;;2.80;;
3979;SDS011;2004;52.452;13.120;2023-05-14T11:51:03;12.40;;;3.80;;
3979;SDS011;2004;52.452;13.120;2023-05-14T11:58:57;7.33;;;3.57;;
3979;SDS011;2004;52.452;13.120;2023-05-14T12:06:48;3.90;;;3.30;;
3979;SDS011;2004;52.452;13.120;2023-05-14T12:14:40;3.80;;;3.50;;
3979;SDS011;2004;52.452;13.120;2023-05-14T12:22:31;8.27;;;3.67;;
3979;SDS011;2004;52.452;13.120;2023-05-14T12:30:22;7.67;;;3.73;;
3979;SDS011;2004;52.452;13.120;2023-05-14T12:38:12;3.27;;;2.97;;
3979;SDS011;2004;52.452;13.120;2023-05-14T12:46:03;9.90;;;3.60;;
3979;SDS011;2004;52.452;13.120;2023-05-14T12:53:53;9.90;;;4.33;;
3979;SDS011;2004;52.452;13.120;2023-05-14T13:01:45;6.60;;;4.20;;
3979;SDS011;2004;52.452;13.120;2023-05-14T13:09:36;11.83;;;3.30;;
3979;SDS011;2004;52.452;13.120;2023-05-14T13:17:26;7.03;;;3.50;;
3979;SDS011;2004;52.452;13.120;2023-05-14T13:25:17;6.50;;;3.60;;
3979;SDS011;2004;52.452;13.120;2023-05-14T13:33:08;6.57;;;3.73;;
3979;SDS011;2004;52.452;13.120;2023-05-14T13:40:58;5.33;;;3.63;;
3979;SDS011;2004;52.452;13.120;2023-05-14T13:48:52;5.90;;;3.67;;
3979;SDS011;2004;52.452;13.120;2023-05-14T13:56:43;5.50;;;3.70;;
3979;SDS011;2004;52.452;13.120;2023-05-14T14:04:35;7.83;;;3.40;;
3979;SDS011;2004;52.452;13.120;2023-05-14T14:12:25;10.00;;;3.40;;
3979;SDS011;2004;52.452;13.120;2023-05-14T14:20:16;7.10;;;3.40;;
3979;SDS011;2004;52.452;13.120;2023-05-14T14:28:07;5.90;;;3.40;;
3979;SDS011;2004;52.452;13.120;2023-05-14T14:35:57;7.63;;;3.20;;
3979;SDS011;2004;52.452;13.120;2023-05-14T14:43:48;4.70;;;3.60;;
3979;SDS011;2004;52.452;13.120;2023-05-14T14:51:38;5.47;;;3.30;;
3979;SDS011;2004;52.452;13.120;2023-05-14T14:59:29;4.53;;;3.43;;
3979;SDS011;2004;52.452;13.120;2023-05-14T15:07:20;6.53;;;3.63;;
3979;SDS011;2004;52.452;13.120;2023-05-14T15:15:11;9.03;;;3.80;;
3979;SDS011;2004;52.452;13.120;2023-05-14T15:23:02;6.77;;;4.80;;
3979;SDS011;2004;52.452;13.120;2023-05-14T15:30:52;5.33;;;3.37;;
3979;SDS011;2004;52.452;13.120;2023-05-14T15:38:43;5.07;;;3.93;;
3979;SDS011;2004;52.452;13.120;2023-05-14T15:46:34;5.40;;;3.70;;
3979;SDS011;2004;52.452;13.120;2023-05-14T15:54:26;7.60;;;3.50;;
3979;SDS011;2004;52.452;13.120;2023-05-14T16:02:17;4.47;;;2.53;;
3979;SDS011;2004;52.452;13.120;2023-05-14T16:10:08;11.70;;;3.70;;
3979;SDS011;2004;52.452;13.120;2023-05-14T16:17:59;5.13;;;3.47;;
3979;SDS011;2004;52.452;13.120;2023-05-14T16:25:50;9.53;;;3.17;;
3979;SDS011;2004;52.452;13.120;2023-05-14T16:33:41;5.07;;;3.37;;
3979;SDS011;2004;52.452;13.120;2023-05-14T16:41:31;4.05;;;2.80;;
3979;SDS011;2004;52.452;13.120;2023-05-14T16:49:22;9.10;;;3.57;;
3979;SDS011;2004;52.452;13.120;2023-05-14T16:57:13;4.53;;;2.90;;
3979;SDS011;2004;52.452;13.120;2023-05-14T17:05:04;6.40;;;3.00;;
3979;SDS011;2004;52.452;13.120;2023-05-14T17:12:56;6.50;;;5.00;;
3979;SDS011;2004;52.452;13.120;2023-05-14T17:20:46;6.37;;;2.93;;
3979;SDS011;2004;52.452;13.120;2023-05-14T17:28:36;8.00;;;5.20;;
3979;SDS011;2004;52.452;13.120;2023-05-14T17:36:28;4.00;;;3.30;;
3979;SDS011;2004;52.452;13.120;2023-05-14T17:44:20;6.07;;;3.37;;
3979;SDS011;2004;52.452;13.120;2023-05-14T17:52:11;6.10;;;3.10;;
3979;SDS011;2004;52.452;13.120;2023-05-14T18:00:02;6.93;;;3.30;;
3979;SDS011;2004;52.452;13.120;2023-05-14T18:07:53;3.90;;;3.50;;
3979;SDS011;2004;52.452;13.120;2023-05-14T18:15:46;4.03;;;3.43;;
3979;SDS011;2004;52.452;13.120;2023-05-14T18:23:37;3.63;;;3.33;;
3979;SDS011;2004;52.452;13.120;2023-05-14T18:31:27;4.33;;;3.30;;
3979;SDS011;2004;52.452;13.120;2023-05-14T18:39:18;4.67;;;3.37;;
3979;SDS011;2004;52.452;13.120;2023-05-14T18:47:09;7.17;;;4.40;;
3979;SDS011;2004;52.452;13.120;2023-05-14T18:55:00;5.93;;;4.40;;
3979;SDS011;2004;52.452;13.120;2023-05-14T19:02:51;6.50;;;4.43;;
3979;SDS011;2004;52.452;13.120;2023-05-14T19:10:43;6.20;;;4.20;;
3979;SDS011;2004;52.452;13.120;2023-05-14T19:18:33;6.83;;;4.50;;
3979;SDS011;2004;52.452;13.120;2023-05-14T19:26:24;10.53;;;5.67;;
3979;SDS011;2004;52.452;13.120;2023-05-14T19:34:14;11.63;;;5.20;;
3979;SDS011;2004;52.452;13.120;2023-05-14T19:42:05;11.43;;;4.70;;
3979;SDS011;2004;52.452;13.120;2023-05-14T19:49:57;18.97;;;5.07;;
3979;SDS011;2004;52.452;13.120;2023-05-14T19:57:48;5.73;;;4.53;;
3979;SDS011;2004;52.452;13.120;2023-05-14T20:05:38;10.80;;;4.90;;
3979;SDS011;2004;52.452;13.120;2023-05-14T20:13:30;11.70;;;4.90;;
3979;SDS011;2004;52.452;13.120;2023-05-14T20:21:22;8.93;;;4.57;;
3979;SDS011;2004;52.452;13.120;2023-05-14T20:29:12;6.60;;;4.53;;
3979;SDS011;2004;52.452;13.120;2023-05-14T20:37:03;6.53;;;5.00;;
3979;SDS011;2004;52.452;13.120;2023-05-14T20:44:54;7.70;;;5.10;;
3979;SDS011;2004;52.452;13.120;2023-05-14T20:52:45;7.50;;;5.60;;
3979;SDS011;2004;52.452;13.120;2023-05-14T21:00:36;10.33;;;5.70;;
3979;SDS011;2004;52.452;13.120;2023-05-14T21:08:28;9.07;;;6.23;;
3979;SDS011;2004;52.452;13.120;2023-05-14T21:16:21;7.80;;;5.73;;
3979;SDS011;2004;52.452;13.120;2023-05-14T21:24:12;12.30;;;6.53;;
3979;SDS011;2004;52.452;13.120;2023-05-14T21:32:06;6.93;;;6.10;;
3979;SDS011;2004;52.452;13.120;2023-05-14T21:39:57;7.67;;;6.37;;
3979;SDS011;2004;52.452;13.120;2023-05-14T21:47:48;6.73;;;6.10;;
3979;SDS011;2004;52.452;13.120;2023-05-14T21:55:38;8.37;;;6.30;;
3979;SDS011;2004;52.452;13.120;2023-05-14T22:03:29;9.80;;;6.70;;
3979;SDS011;2004;52.452;13.120;2023-05-14T22:11:20;7.57;;;6.77;;
3979;SDS011;2004;52.452;13.120;2023-05-14T22:19:11;8.53;;;6.83;;
3979;SDS011;2004;52.452;13.120;2023-05-14T22:27:02;6.57;;;5.87;;
3979;SDS011;2004;52.452;13.120;2023-05-14T22:34:53;11.70;;;7.63;;
3979;SDS011;2004;52.452;13.120;2023-05-14T22:42:45;16.97;;;12.00;;
3979;SDS011;2004;52.452;13.120;2023-05-14T22:50:35;17.77;;;13.93;;
3979;SDS011;2004;52.452;13.120;2023-05-14T22:58:26;21.07;;;14.20;;
3979;SDS011;2004;52.452;13.120;2023-05-14T23:06:16;18.17;;;13.17;;
3979;SDS011;2004;52.452;13.120;2023-05-14T23:14:07;15.47;;;12.57;;
3979;SDS011;2004;52.452;13.120;2023-05-14T23:21:57;22.57;;;12.47;;
3979;SDS011;2004;52.452;13.120;2023-05-14T23:29:48;18.73;;;12.50;;
3979;SDS011;2004;52.452;13.120;2023-05-14T23:37:40;17.67;;;12.37;;
3979;SDS011;2004;52.452;13.120;2023-05-14T23:45:35;12.27;;;10.77;;
3979;SDS011;2004;52.452;13.120;2023-05-14T23:53:26;14.70;;;11.43;;
